Time;durP1;ratioP1;P1;durP2;ratioP2;P2;SDS_P1;SDS_P2;PMS_P1;PMS_P2;Temp;Humidity;BMP_temperature;BMP_pressure;BME280_temperature;BME280_humidity;BME280_pressure;Samples;Min_cycle;Max_cycle;Signal;HPM_P1;HPM_P2
2022/12/21 00:02:07;;;;;;;421.00;175.70;;;;;;;;;;4979116;28;20639;-54
2022/12/21 00:04:33;;;;;;;408.63;167.03;;;;;;;;;;4997582;28;20201;-55
2022/12/21 00:06:59;;;;;;;414.67;168.93;;;;;;;;;;4994968;28;20263;-55
2022/12/21 00:09:25;;;;;;;349.97;145.53;;;;;;;;;;4988172;28;20278;-55
2022/12/21 00:11:51;;;;;;;357.57;150.03;;;;;;;;;;4978567;28;20538;-55
2022/12/21 00:14:17;;;;;;;530.33;218.57;;;;;;;;;;4967700;28;20233;-54
2022/12/21 00:16:43;;;;;;;386.70;153.63;;;;;;;;;;4971584;28;20197;-55
2022/12/21 00:19:16;;;;;;;398.73;161.50;;;;;;;;;;4977301;28;20187;-54
2022/12/21 00:21:42;;;;;;;368.80;157.03;;;;;;;;;;4970744;28;20566;-54
2022/12/21 00:24:08;;;;;;;354.73;151.43;;;;;;;;;;4974236;28;20229;-54
2022/12/21 00:26:35;;;;;;;438.03;178.70;;;;;;;;;;4970883;28;21510;-55
2022/12/21 00:29:02;;;;;;;432.67;173.90;;;;;;;;;;4966793;28;20214;-53
2022/12/21 00:31:29;;;;;;;446.57;180.67;;;;;;;;;;4965846;28;20316;-55
2022/12/21 00:33:56;;;;;;;357.07;150.07;;;;;;;;;;4998859;28;20701;-54
2022/12/21 00:36:23;;;;;;;432.70;173.73;;;;;;;;;;4994901;28;20232;-55
2022/12/21 00:38:49;;;;;;;376.30;157.27;;;;;;;;;;4996982;28;20791;-55
2022/12/21 00:41:17;;;;;;;341.77;141.80;;;;;;;;;;5003604;28;20418;-56
2022/12/21 00:43:43;;;;;;;392.87;160.83;;;;;;;;;;5005133;28;20208;-54
2022/12/21 00:46:17;;;;;;;337.03;139.70;;;;;;;;;;4971648;28;20234;-55
2022/12/21 00:48:43;;;;;;;476.17;208.43;;;;;;;;;;4978933;23;20225;-47
2022/12/21 00:51:11;;;;;;;326.27;157.60;;;;;;;;;;4979454;28;20300;-46
2022/12/21 00:53:37;;;;;;;433.00;193.53;;;;;;;;;;4977987;28;20217;-46
2022/12/21 00:56:04;;;;;;;341.20;156.30;;;;;;;;;;4977841;28;20668;-47
2022/12/21 00:58:31;;;;;;;452.30;199.00;;;;;;;;;;4972051;28;20186;-47
2022/12/21 01:00:58;;;;;;;404.40;181.00;;;;;;;;;;4976760;28;20193;-46
2022/12/21 01:03:25;;;;;;;454.90;203.57;;;;;;;;;;4980084;28;20344;-46
2022/12/21 01:05:51;;;;;;;331.53;154.47;;;;;;;;;;4972442;28;20229;-46
2022/12/21 01:08:18;;;;;;;313.27;150.67;;;;;;;;;;4975731;28;20364;-46
2022/12/21 01:10:44;;;;;;;444.77;201.33;;;;;;;;;;4974818;28;20185;-46
2022/12/21 01:13:11;;;;;;;360.10;167.70;;;;;;;;;;4973522;28;20296;-47
2022/12/21 01:15:46;;;;;;;389.37;184.13;;;;;;;;;;4979220;28;20290;-48
2022/12/21 01:18:13;;;;;;;316.87;151.70;;;;;;;;;;4978159;28;20218;-46
2022/12/21 01:20:40;;;;;;;319.27;153.73;;;;;;;;;;4978636;28;20280;-46
2022/12/21 01:23:06;;;;;;;368.30;169.03;;;;;;;;;;4978211;28;20229;-48
2022/12/21 01:25:32;;;;;;;428.47;196.20;;;;;;;;;;4978227;28;20193;-46
2022/12/21 01:27:59;;;;;;;429.03;194.70;;;;;;;;;;4977880;28;20216;-48
2022/12/21 01:30:25;;;;;;;356.43;161.60;;;;;;;;;;4979839;28;20434;-46
2022/12/21 01:32:51;;;;;;;420.13;190.67;;;;;;;;;;4973173;28;20914;-46
2022/12/21 01:35:18;;;;;;;290.60;143.00;;;;;;;;;;4970695;28;20703;-46
2022/12/21 01:37:44;;;;;;;361.17;176.13;;;;;;;;;;4977965;28;20287;-46
2022/12/21 01:40:10;;;;;;;345.83;164.63;;;;;;;;;;4979752;28;20181;-46
2022/12/21 01:42:36;;;;;;;313.73;146.80;;;;;;;;;;4979174;28;20225;-46
2022/12/21 01:45:14;;;;;;;429.30;198.33;;;;;;;;;;4979505;28;20519;-46
2022/12/21 01:47:45;;;;;;;365.30;169.33;;;;;;;;;;4969950;28;20201;-46
2022/12/21 01:50:24;;;;;;;413.97;181.47;;;;;;;;;;4979170;28;20573;-46
2022/12/21 01:52:50;;;;;;;415.93;191.90;;;;;;;;;;4979832;28;20248;-46
2022/12/21 01:55:16;;;;;;;434.80;196.57;;;;;;;;;;4979747;28;20622;-47
2022/12/21 01:57:42;;;;;;;322.90;152.00;;;;;;;;;;4969624;28;20504;-46
2022/12/21 02:00:09;;;;;;;380.47;174.07;;;;;;;;;;4976946;28;20384;-46
2022/12/21 02:02:41;;;;;;;352.20;167.77;;;;;;;;;;4976813;28;20362;-46
2022/12/21 02:05:27;;;;;;;439.60;200.10;;;;;;;;;;4973705;28;20308;-46
2022/12/21 02:07:54;;;;;;;312.60;143.90;;;;;;;;;;4979963;28;20233;-46
2022/12/21 02:10:20;;;;;;;440.60;203.70;;;;;;;;;;4982684;28;20197;-46
2022/12/21 02:12:47;;;;;;;343.40;160.00;;;;;;;;;;4982599;28;20315;-47
2022/12/21 02:15:13;;;;;;;367.07;174.57;;;;;;;;;;4977027;28;20579;-46
2022/12/21 02:17:39;;;;;;;337.40;156.37;;;;;;;;;;4980030;28;20589;-47
2022/12/21 02:20:05;;;;;;;299.00;140.17;;;;;;;;;;4978665;28;20266;-46
2022/12/21 02:22:41;;;;;;;429.07;194.43;;;;;;;;;;4984126;28;21843;-47
2022/12/21 02:25:10;;;;;;;346.57;163.07;;;;;;;;;;4977271;28;20229;-47
2022/12/21 02:27:56;;;;;;;447.37;201.40;;;;;;;;;;4975307;28;20225;-48
2022/12/21 02:30:22;;;;;;;433.53;200.37;;;;;;;;;;4965322;28;20893;-46
2022/12/21 02:33:07;;;;;;;459.90;209.53;;;;;;;;;;4979920;28;20221;-46
2022/12/21 02:35:42;;;;;;;309.03;145.07;;;;;;;;;;4977038;28;20225;-46
2022/12/21 02:38:14;;;;;;;348.53;163.07;;;;;;;;;;4984354;28;20220;-46
2022/12/21 02:40:55;;;;;;;469.73;214.23;;;;;;;;;;4980480;28;20182;-46
2022/12/21 02:46:08;;;;;;;435.10;199.77;;;;;;;;;;4958459;28;20217;-46
2022/12/21 02:48:44;;;;;;;328.43;156.37;;;;;;;;;;4971051;28;20618;-46
2022/12/21 02:51:13;;;;;;;464.60;209.70;;;;;;;;;;4981287;28;20228;-48
2022/12/21 02:53:39;;;;;;;465.17;215.67;;;;;;;;;;4976831;28;20235;-46
2022/12/21 02:56:13;;;;;;;401.93;191.07;;;;;;;;;;4983036;28;20327;-46
2022/12/21 02:58:40;;;;;;;357.33;168.23;;;;;;;;;;4981908;28;20192;-46
2022/12/21 03:01:26;;;;;;;310.20;148.80;;;;;;;;;;4980038;28;20637;-47
2022/12/21 03:03:52;;;;;;;413.63;190.53;;;;;;;;;;4971344;28;20222;-47
2022/12/21 03:06:21;;;;;;;436.57;195.30;;;;;;;;;;4973505;28;20681;-46
2022/12/21 03:09:04;;;;;;;391.47;176.67;;;;;;;;;;4978558;28;20305;-46
2022/12/21 03:11:34;;;;;;;312.13;150.17;;;;;;;;;;4979436;28;20313;-46
2022/12/21 03:14:06;;;;;;;323.63;152.17;;;;;;;;;;4979435;28;20279;-47
2022/12/21 03:16:49;;;;;;;318.03;150.47;;;;;;;;;;4977668;28;20248;-46
2022/12/21 03:19:21;;;;;;;441.23;204.40;;;;;;;;;;4978836;28;20186;-46
2022/12/21 03:21:48;;;;;;;390.13;185.97;;;;;;;;;;4981011;28;20233;-46
2022/12/21 03:24:17;;;;;;;429.80;196.70;;;;;;;;;;4978640;28;20221;-46
2022/12/21 03:27:02;;;;;;;430.00;191.27;;;;;;;;;;4980712;28;20313;-46
2022/12/21 03:29:34;;;;;;;371.23;169.60;;;;;;;;;;4995690;28;20740;-46
2022/12/21 03:32:04;;;;;;;373.60;174.50;;;;;;;;;;4976328;28;20240;-47
2022/12/21 03:34:31;;;;;;;375.67;173.50;;;;;;;;;;4975214;28;20472;-46
2022/12/21 03:36:57;;;;;;;443.47;198.53;;;;;;;;;;4978234;28;20520;-46
2022/12/21 03:39:24;;;;;;;434.77;206.13;;;;;;;;;;4979832;28;20216;-46
2022/12/21 03:41:55;;;;;;;345.27;159.03;;;;;;;;;;4978489;28;20712;-47
2022/12/21 03:44:25;;;;;;;457.20;205.87;;;;;;;;;;4981179;28;20240;-46
2022/12/21 03:46:55;;;;;;;367.90;170.93;;;;;;;;;;4978811;28;20265;-46
2022/12/21 03:49:26;;;;;;;416.33;188.43;;;;;;;;;;4979645;28;20346;-46
2022/12/21 03:52:02;;;;;;;416.10;190.97;;;;;;;;;;4980995;28;20221;-47
2022/12/21 03:54:47;;;;;;;371.00;170.97;;;;;;;;;;4982135;28;20221;-47
2022/12/21 03:57:13;;;;;;;448.07;204.37;;;;;;;;;;4980443;28;20354;-46
2022/12/21 03:59:41;;;;;;;502.10;228.17;;;;;;;;;;4977547;28;20234;-46
2022/12/21 04:02:10;;;;;;;369.67;166.13;;;;;;;;;;4981483;28;20225;-46
2022/12/21 04:04:49;;;;;;;485.60;212.60;;;;;;;;;;4976656;28;20206;-46
2022/12/21 04:07:16;;;;;;;385.37;172.13;;;;;;;;;;4972497;28;20170;-47
2022/12/21 04:09:42;;;;;;;360.17;164.53;;;;;;;;;;4980867;28;20213;-46
2022/12/21 04:14:53;;;;;;;533.27;242.97;;;;;;;;;;4980844;28;20390;-47
2022/12/21 04:17:19;;;;;;;507.67;220.57;;;;;;;;;;4979002;28;20213;-46
2022/12/21 04:19:57;;;;;;;423.60;185.17;;;;;;;;;;4978137;28;20610;-46
2022/12/21 04:28:09;;;;;;;515.40;230.10;;;;;;;;;;5001744;28;20323;-47
2022/12/21 04:30:39;;;;;;;488.93;213.77;;;;;;;;;;4988925;28;20351;-46
2022/12/21 04:33:07;;;;;;;383.10;170.87;;;;;;;;;;4967036;28;20317;-46
2022/12/21 04:35:34;;;;;;;472.30;209.13;;;;;;;;;;4971970;28;20589;-47
2022/12/21 04:38:00;;;;;;;431.60;191.20;;;;;;;;;;4977895;28;20215;-46
2022/12/21 04:40:26;;;;;;;496.73;218.87;;;;;;;;;;4987529;28;20240;-46
2022/12/21 04:42:52;;;;;;;457.17;211.30;;;;;;;;;;4979152;28;20367;-46
2022/12/21 04:45:18;;;;;;;349.50;160.13;;;;;;;;;;4974171;28;20309;-46
2022/12/21 04:47:44;;;;;;;388.37;173.33;;;;;;;;;;4981043;28;20812;-47
2022/12/21 04:50:10;;;;;;;374.50;172.70;;;;;;;;;;4989516;28;20307;-46
2022/12/21 04:52:36;;;;;;;490.07;223.57;;;;;;;;;;4990861;28;20284;-46
2022/12/21 04:55:05;;;;;;;485.13;217.97;;;;;;;;;;4980185;28;20293;-46
2022/12/21 04:57:31;;;;;;;478.60;210.27;;;;;;;;;;4981193;28;20214;-46
2022/12/21 04:59:57;;;;;;;450.40;197.83;;;;;;;;;;4973539;28;20555;-46
2022/12/21 05:02:23;;;;;;;361.57;159.40;;;;;;;;;;4976066;28;20617;-47
2022/12/21 05:04:49;;;;;;;509.00;230.77;;;;;;;;;;4980085;28;20394;-47
2022/12/21 05:07:15;;;;;;;468.17;209.60;;;;;;;;;;4980877;28;20232;-47
2022/12/21 05:09:41;;;;;;;379.73;172.63;;;;;;;;;;4978145;28;20265;-47
2022/12/21 05:12:07;;;;;;;470.13;208.40;;;;;;;;;;4980834;28;20209;-47
2022/12/21 05:14:33;;;;;;;410.40;181.30;;;;;;;;;;4976453;28;20209;-47
2022/12/21 05:16:59;;;;;;;461.47;210.67;;;;;;;;;;4980063;28;20223;-46
2022/12/21 05:19:25;;;;;;;412.70;183.07;;;;;;;;;;4979539;28;20558;-47
2022/12/21 05:21:51;;;;;;;459.03;201.43;;;;;;;;;;4980165;28;20297;-46
2022/12/21 05:24:17;;;;;;;430.57;190.97;;;;;;;;;;4982596;28;20281;-46
2022/12/21 05:26:43;;;;;;;469.40;208.03;;;;;;;;;;4972805;28;20313;-46
2022/12/21 05:29:10;;;;;;;392.43;175.07;;;;;;;;;;4978749;28;20940;-46
2022/12/21 05:31:36;;;;;;;361.37;161.30;;;;;;;;;;4978957;28;20185;-46
2022/12/21 05:34:02;;;;;;;417.97;191.23;;;;;;;;;;4978898;28;20545;-46
2022/12/21 05:36:29;;;;;;;370.67;171.77;;;;;;;;;;4981150;28;20326;-47
2022/12/21 05:38:57;;;;;;;484.77;212.90;;;;;;;;;;4967918;28;20575;-46
2022/12/21 05:41:23;;;;;;;393.10;181.47;;;;;;;;;;4964998;28;20838;-46
2022/12/21 05:43:49;;;;;;;350.63;162.37;;;;;;;;;;4975923;28;20443;-46
2022/12/21 05:46:15;;;;;;;345.87;155.57;;;;;;;;;;4975140;28;20434;-46
2022/12/21 05:48:41;;;;;;;470.97;210.00;;;;;;;;;;4977922;28;20213;-46
2022/12/21 05:51:09;;;;;;;462.73;211.20;;;;;;;;;;4977844;28;20283;-46
2022/12/21 05:53:35;;;;;;;359.27;164.07;;;;;;;;;;4965908;28;20228;-46
2022/12/21 05:56:01;;;;;;;492.20;217.20;;;;;;;;;;4973797;28;20795;-46
2022/12/21 05:58:27;;;;;;;358.93;162.73;;;;;;;;;;4980318;28;20201;-46
2022/12/21 06:00:53;;;;;;;344.30;161.93;;;;;;;;;;4977156;28;20218;-47
2022/12/21 06:03:20;;;;;;;358.43;161.50;;;;;;;;;;4976937;28;20332;-46
2022/12/21 06:05:47;;;;;;;363.00;170.73;;;;;;;;;;4976463;28;20252;-46
2022/12/21 06:08:12;;;;;;;403.47;186.80;;;;;;;;;;4982190;28;20240;-48
2022/12/21 06:10:39;;;;;;;332.80;153.43;;;;;;;;;;4984096;28;20197;-47
2022/12/21 06:13:06;;;;;;;425.83;202.70;;;;;;;;;;4976898;28;20286;-47
2022/12/21 06:15:31;;;;;;;352.27;161.53;;;;;;;;;;4978195;28;20661;-47
2022/12/21 06:17:57;;;;;;;449.53;202.77;;;;;;;;;;4983272;28;20279;-47
2022/12/21 06:20:23;;;;;;;465.97;209.77;;;;;;;;;;4981356;28;20604;-47
2022/12/21 06:22:49;;;;;;;460.83;205.87;;;;;;;;;;4980543;28;20280;-47
2022/12/21 06:25:16;;;;;;;355.80;165.27;;;;;;;;;;4977783;28;20690;-47
2022/12/21 06:27:42;;;;;;;480.47;215.63;;;;;;;;;;4977537;28;20265;-46
2022/12/21 06:30:09;;;;;;;445.77;200.40;;;;;;;;;;4982771;28;20437;-46
2022/12/21 06:32:35;;;;;;;396.00;176.43;;;;;;;;;;4982360;28;20581;-46
2022/12/21 06:35:01;;;;;;;489.47;219.67;;;;;;;;;;4981896;28;20228;-47
2022/12/21 06:37:27;;;;;;;431.37;194.63;;;;;;;;;;4980666;28;20219;-46
2022/12/21 06:39:53;;;;;;;347.27;159.30;;;;;;;;;;4982107;28;20305;-47
2022/12/21 06:42:19;;;;;;;399.73;178.43;;;;;;;;;;4981618;28;20279;-48
2022/12/21 06:44:45;;;;;;;380.40;174.57;;;;;;;;;;4977076;28;20624;-48
2022/12/21 06:47:11;;;;;;;385.97;183.47;;;;;;;;;;4979976;28;20292;-48
2022/12/21 06:49:37;;;;;;;459.17;189.53;;;;;;;;;;4982380;23;20723;-72
2022/12/21 06:52:03;;;;;;;471.60;196.30;;;;;;;;;;4964677;28;20190;-72
2022/12/21 06:54:29;;;;;;;443.27;183.90;;;;;;;;;;4970785;28;20213;-73
2022/12/21 06:56:55;;;;;;;298.53;133.57;;;;;;;;;;4958458;28;20457;-71
2022/12/21 06:59:21;;;;;;;331.60;144.33;;;;;;;;;;4964960;28;20221;-71
2022/12/21 07:01:47;;;;;;;352.03;152.87;;;;;;;;;;4950190;28;20178;-72
2022/12/21 07:04:16;;;;;;;455.93;190.27;;;;;;;;;;4968839;28;20197;-71
2022/12/21 07:06:45;;;;;;;462.70;188.00;;;;;;;;;;4967428;28;20205;-71
2022/12/21 07:09:14;;;;;;;498.57;212.87;;;;;;;;;;4953786;28;20221;-70
2022/12/21 07:11:40;;;;;;;436.27;182.73;;;;;;;;;;4959115;28;20321;-70
2022/12/21 07:14:07;;;;;;;276.40;122.53;;;;;;;;;;4967418;28;20624;-71
2022/12/21 07:16:36;;;;;;;437.70;183.70;;;;;;;;;;4954458;28;20219;-71
2022/12/21 07:19:06;;;;;;;443.67;187.63;;;;;;;;;;4946114;28;20741;-71
2022/12/21 07:21:32;;;;;;;287.30;127.23;;;;;;;;;;4965444;28;20251;-71
2022/12/21 07:23:58;;;;;;;431.57;182.07;;;;;;;;;;4959026;28;20201;-71
2022/12/21 07:26:24;;;;;;;493.07;206.90;;;;;;;;;;4952154;28;20221;-73
2022/12/21 07:28:51;;;;;;;413.07;178.13;;;;;;;;;;4965031;28;20693;-71
2022/12/21 07:31:27;;;;;;;492.67;204.13;;;;;;;;;;4957418;28;20228;-71
2022/12/21 07:33:56;;;;;;;534.73;226.43;;;;;;;;;;4947004;28;21142;-71
2022/12/21 07:36:22;;;;;;;348.00;150.40;;;;;;;;;;4958389;28;20225;-71
2022/12/21 07:38:48;;;;;;;348.87;145.20;;;;;;;;;;4955847;28;20301;-71
2022/12/21 07:41:16;;;;;;;335.47;143.50;;;;;;;;;;4957304;28;20217;-70
2022/12/21 07:43:48;;;;;;;540.23;223.03;;;;;;;;;;4955726;28;20510;-71
2022/12/21 07:46:14;;;;;;;357.93;154.27;;;;;;;;;;4960128;28;20497;-69
2022/12/21 07:48:40;;;;;;;462.23;193.23;;;;;;;;;;4955312;28;20221;-69
2022/12/21 07:51:18;;;;;;;554.63;230.30;;;;;;;;;;4946400;28;20225;-72
2022/12/21 07:53:44;;;;;;;396.80;166.33;;;;;;;;;;4960458;28;20240;-71
2022/12/21 07:56:14;;;;;;;398.50;166.83;;;;;;;;;;4960964;28;21012;-70
2022/12/21 07:58:46;;;;;;;515.37;206.80;;;;;;;;;;4966963;28;20206;-71
2022/12/21 08:01:25;;;;;;;494.80;204.53;;;;;;;;;;4964256;28;20260;-70
2022/12/21 08:03:51;;;;;;;463.63;188.93;;;;;;;;;;4970354;28;20221;-74
2022/12/21 08:06:20;;;;;;;472.87;198.40;;;;;;;;;;4967434;28;20707;-74
2022/12/21 08:08:46;;;;;;;517.57;208.90;;;;;;;;;;4961974;28;20376;-73
2022/12/21 08:11:14;;;;;;;485.33;196.40;;;;;;;;;;4970381;28;20213;-71
2022/12/21 08:13:41;;;;;;;411.07;180.27;;;;;;;;;;4978053;28;20200;-72
2022/12/21 08:16:08;;;;;;;435.17;180.27;;;;;;;;;;4982412;28;20258;-73
2022/12/21 08:18:37;;;;;;;412.23;183.60;;;;;;;;;;4975027;28;20240;-73
2022/12/21 08:21:10;;;;;;;403.80;169.53;;;;;;;;;;4973686;28;20718;-72
2022/12/21 08:23:36;;;;;;;442.33;176.27;;;;;;;;;;4961257;28;20310;-71
2022/12/21 08:26:03;;;;;;;454.17;184.07;;;;;;;;;;4971303;28;21318;-75
2022/12/21 08:28:30;;;;;;;452.93;189.43;;;;;;;;;;4965391;28;20622;-73
2022/12/21 08:31:02;;;;;;;432.17;185.17;;;;;;;;;;4981661;28;20192;-74
2022/12/21 08:33:37;;;;;;;689.03;293.50;;;;;;;;;;4960402;28;20224;-74
2022/12/21 08:36:03;;;;;;;484.17;196.90;;;;;;;;;;4958033;28;20232;-71
2022/12/21 08:38:33;;;;;;;480.10;197.13;;;;;;;;;;4956655;28;20239;-71
2022/12/21 08:41:03;;;;;;;391.83;172.13;;;;;;;;;;4963038;28;20663;-70
2022/12/21 08:43:33;;;;;;;606.43;239.23;;;;;;;;;;4966935;28;20232;-70
2022/12/21 08:46:04;;;;;;;539.53;216.90;;;;;;;;;;4968457;28;20276;-70
2022/12/21 08:48:31;;;;;;;553.07;227.30;;;;;;;;;;4969596;28;20248;-70
2022/12/21 08:50:58;;;;;;;603.07;243.87;;;;;;;;;;4964925;28;20228;-71
2022/12/21 08:53:30;;;;;;;643.87;264.80;;;;;;;;;;4968057;28;20290;-71
2022/12/21 08:55:56;;;;;;;677.13;279.80;;;;;;;;;;4966041;28;20278;-71
2022/12/21 08:58:29;;;;;;;589.47;233.90;;;;;;;;;;4967227;28;20217;-71
2022/12/21 09:00:56;;;;;;;679.13;263.53;;;;;;;;;;4951284;28;20229;-70
2022/12/21 09:03:27;;;;;;;622.10;242.13;;;;;;;;;;4962907;28;22053;-72
2022/12/21 09:06:03;;;;;;;578.57;232.40;;;;;;;;;;4961234;28;20221;-74
2022/12/21 09:08:36;;;;;;;566.23;222.43;;;;;;;;;;4957071;28;20231;-72
2022/12/21 09:11:04;;;;;;;572.57;221.93;;;;;;;;;;4963824;28;20241;-72
2022/12/21 09:13:30;;;;;;;667.27;265.60;;;;;;;;;;4961939;28;20264;-73
2022/12/21 09:16:03;;;;;;;585.47;230.67;;;;;;;;;;4967209;28;20628;-72
2022/12/21 09:18:29;;;;;;;637.70;260.53;;;;;;;;;;4953744;28;20225;-73
2022/12/21 09:21:01;;;;;;;611.00;249.17;;;;;;;;;;4949435;28;20372;-72
2022/12/21 09:23:27;;;;;;;694.70;280.80;;;;;;;;;;4951928;28;20368;-72
2022/12/21 09:25:56;;;;;;;552.97;225.17;;;;;;;;;;4964608;28;20638;-72
2022/12/21 09:28:24;;;;;;;601.60;247.57;;;;;;;;;;4960732;28;20205;-70
2022/12/21 09:30:53;;;;;;;515.57;217.03;;;;;;;;;;4961932;28;20229;-72
2022/12/21 09:33:19;;;;;;;484.07;211.97;;;;;;;;;;4962132;28;20535;-73
2022/12/21 09:35:47;;;;;;;483.37;195.93;;;;;;;;;;4980784;28;20218;-74
2022/12/21 09:38:13;;;;;;;163.07;88.90;;;;;;;;;;4971461;28;20726;-73
2022/12/21 09:40:39;;;;;;;145.70;83.00;;;;;;;;;;4985259;28;20193;-73
2022/12/21 09:43:11;;;;;;;156.00;87.33;;;;;;;;;;4982907;28;20441;-73
2022/12/21 09:45:47;;;;;;;188.83;96.87;;;;;;;;;;4973556;28;20828;-73
2022/12/21 09:48:15;;;;;;;224.33;104.93;;;;;;;;;;4974467;28;20220;-73
2022/12/21 09:50:46;;;;;;;220.73;105.47;;;;;;;;;;4970170;28;20316;-73
2022/12/21 09:53:21;;;;;;;199.70;100.77;;;;;;;;;;4973574;28;20210;-73
2022/12/21 09:55:54;;;;;;;160.57;89.93;;;;;;;;;;4981247;28;20296;-72
2022/12/21 09:58:23;;;;;;;228.27;107.77;;;;;;;;;;4975831;28;20325;-73
2022/12/21 10:00:51;;;;;;;202.33;98.37;;;;;;;;;;4972566;28;20635;-73
2022/12/21 10:03:32;;;;;;;143.93;83.00;;;;;;;;;;4975922;28;20209;-73
2022/12/21 10:06:04;;;;;;;169.13;88.10;;;;;;;;;;4982350;28;20209;-73
2022/12/21 10:08:30;;;;;;;153.17;83.90;;;;;;;;;;4980335;28;20252;-73
2022/12/21 10:11:04;;;;;;;142.73;83.50;;;;;;;;;;4981826;28;20225;-73
2022/12/21 10:13:53;;;;;;;171.77;93.37;;;;;;;;;;4981936;28;20651;-73
2022/12/21 10:16:37;;;;;;;142.87;82.57;;;;;;;;;;4986330;28;20217;-73
2022/12/21 10:19:22;;;;;;;507.10;212.07;;;;;;;;;;4967988;28;20491;-73
2022/12/21 10:22:01;;;;;;;568.50;223.80;;;;;;;;;;4961655;28;20213;-72
2022/12/21 10:24:36;;;;;;;569.70;228.50;;;;;;;;;;4955872;28;20268;-75
2022/12/21 10:27:09;;;;;;;493.30;199.57;;;;;;;;;;4958342;28;20497;-74
2022/12/21 10:29:38;;;;;;;606.17;229.17;;;;;;;;;;4957180;28;20679;-75
2022/12/21 10:32:05;;;;;;;628.37;235.60;;;;;;;;;;4957514;28;20743;-73
2022/12/21 10:34:35;;;;;;;554.97;211.83;;;;;;;;;;4946863;28;20383;-74
2022/12/21 10:37:02;;;;;;;554.87;222.57;;;;;;;;;;4955812;28;20352;-74
2022/12/21 10:39:30;;;;;;;506.77;203.73;;;;;;;;;;4960630;28;20753;-72
2022/12/21 10:42:25;;;;;;;535.53;214.80;;;;;;;;;;4970713;28;20225;-73
2022/12/21 10:44:57;;;;;;;572.73;226.20;;;;;;;;;;4964254;28;20254;-73
2022/12/21 10:47:26;;;;;;;581.30;239.60;;;;;;;;;;4951303;28;21320;-73
2022/12/21 10:50:01;;;;;;;559.17;217.87;;;;;;;;;;4955935;28;20298;-73
2022/12/21 10:52:41;;;;;;;190.67;92.73;;;;;;;;;;4970887;28;20185;-73
2022/12/21 10:55:19;;;;;;;239.97;109.47;;;;;;;;;;4968119;28;21175;-73
2022/12/21 10:58:03;;;;;;;179.77;91.43;;;;;;;;;;4980370;28;20222;-73
2022/12/21 11:00:32;;;;;;;231.97;109.93;;;;;;;;;;4970046;28;20460;-73
2022/12/21 11:02:59;;;;;;;156.50;85.63;;;;;;;;;;4980805;28;20240;-73
2022/12/21 11:05:28;;;;;;;152.93;85.37;;;;;;;;;;4985323;28;20694;-73
2022/12/21 11:08:09;;;;;;;167.93;91.73;;;;;;;;;;4981113;28;20753;-73
2022/12/21 11:10:35;;;;;;;181.30;96.97;;;;;;;;;;4976452;28;20836;-73
2022/12/21 11:13:04;;;;;;;169.10;90.23;;;;;;;;;;4983644;28;20185;-73
2022/12/21 11:15:34;;;;;;;295.47;137.20;;;;;;;;;;4974360;28;20379;-74
2022/12/21 11:18:00;;;;;;;593.43;231.80;;;;;;;;;;4954834;28;20267;-73
2022/12/21 11:20:30;;;;;;;574.40;230.03;;;;;;;;;;4956084;28;20218;-73
2022/12/21 11:22:57;;;;;;;622.93;245.37;;;;;;;;;;4959895;28;20295;-73
2022/12/21 11:25:28;;;;;;;597.47;239.40;;;;;;;;;;4954020;28;20234;-74
2022/12/21 11:28:02;;;;;;;609.70;241.73;;;;;;;;;;4955160;28;20233;-74
2022/12/21 11:30:34;;;;;;;633.60;267.17;;;;;;;;;;4950994;28;20591;-73
2022/12/21 11:33:04;;;;;;;587.23;241.47;;;;;;;;;;4957822;28;20222;-73
2022/12/21 11:35:37;;;;;;;534.67;226.00;;;;;;;;;;4965346;28;20217;-75
2022/12/21 11:38:09;;;;;;;559.27;230.87;;;;;;;;;;4965822;28;20591;-74
2022/12/21 11:40:36;;;;;;;593.33;248.13;;;;;;;;;;4966714;28;20212;-73
2022/12/21 11:43:07;;;;;;;574.53;233.43;;;;;;;;;;4966664;28;20254;-71
2022/12/21 11:45:45;;;;;;;660.27;273.97;;;;;;;;;;4969900;28;20224;-70
2022/12/21 11:48:30;;;;;;;614.20;250.20;;;;;;;;;;4954245;28;20237;-71
2022/12/21 11:51:14;;;;;;;651.73;261.90;;;;;;;;;;4951876;28;20315;-73
2022/12/21 11:54:09;;;;;;;576.03;228.17;;;;;;;;;;4963307;28;20225;-73
2022/12/21 11:57:11;;;;;;;591.20;242.30;;;;;;;;;;4963243;28;20612;-73
2022/12/21 11:59:51;;;;;;;536.43;226.93;;;;;;;;;;4947874;28;20590;-75
2022/12/21 12:02:54;;;;;;;317.37;156.17;;;;;;;;;;4946575;28;20221;-71
2022/12/21 12:05:23;;;;;;;599.00;262.37;;;;;;;;;;4955585;28;20253;-72
2022/12/21 12:08:07;;;;;;;548.17;238.63;;;;;;;;;;4948877;28;21267;-72
2022/12/21 12:10:55;;;;;;;552.67;244.83;;;;;;;;;;4966797;28;20190;-72
2022/12/21 12:13:25;;;;;;;531.93;227.27;;;;;;;;;;4961818;28;20280;-72
2022/12/21 12:16:12;;;;;;;522.93;221.77;;;;;;;;;;4969370;28;20225;-72
2022/12/21 12:19:28;;;;;;;602.67;255.70;;;;;;;;;;4968914;28;20769;-72
2022/12/21 12:22:09;;;;;;;593.57;252.87;;;;;;;;;;4952513;28;20308;-73
2022/12/21 12:24:39;;;;;;;611.17;257.57;;;;;;;;;;4959035;28;20573;-73
2022/12/21 12:27:17;;;;;;;602.63;261.80;;;;;;;;;;4954934;28;20767;-73
2022/12/21 12:29:52;;;;;;;617.23;263.57;;;;;;;;;;4966594;28;20278;-73
2022/12/21 12:32:38;;;;;;;553.20;225.70;;;;;;;;;;4962788;28;20779;-72
2022/12/21 12:35:14;;;;;;;655.27;285.97;;;;;;;;;;4959353;28;20225;-74
2022/12/21 12:37:59;;;;;;;616.30;246.43;;;;;;;;;;4957545;28;20213;-73
2022/12/21 12:40:44;;;;;;;656.73;277.37;;;;;;;;;;4976446;28;21435;-73
2022/12/21 12:43:29;;;;;;;627.77;254.77;;;;;;;;;;4966000;28;20225;-73
2022/12/21 12:48:54;;;;;;;666.67;264.33;;;;;;;;;;4956776;28;20236;-71
2022/12/21 12:51:22;;;;;;;690.90;296.30;;;;;;;;;;4945821;28;20252;-72
2022/12/21 12:54:07;;;;;;;723.57;292.50;;;;;;;;;;4955252;28;20319;-72
2022/12/21 12:56:45;;;;;;;659.47;264.93;;;;;;;;;;4960058;28;20233;-72
2022/12/21 12:59:19;;;;;;;611.73;251.47;;;;;;;;;;4960973;28;20333;-72
2022/12/21 13:01:59;;;;;;;591.97;243.07;;;;;;;;;;4961161;28;20189;-72
2022/12/21 13:04:46;;;;;;;550.93;232.20;;;;;;;;;;4976777;28;20231;-73
2022/12/21 13:07:35;;;;;;;657.97;279.63;;;;;;;;;;4956890;28;20494;-72
2022/12/21 13:10:04;;;;;;;651.57;271.50;;;;;;;;;;4960753;28;20221;-73
2022/12/21 13:12:30;;;;;;;668.57;279.40;;;;;;;;;;4958732;28;20221;-72
2022/12/21 13:15:02;;;;;;;592.73;239.77;;;;;;;;;;4960632;28;20317;-72
2022/12/21 13:17:49;;;;;;;634.67;263.77;;;;;;;;;;4966696;28;20587;-72
2022/12/21 13:20:23;;;;;;;644.20;261.37;;;;;;;;;;4966936;28;20222;-72
2022/12/21 13:22:52;;;;;;;561.27;230.27;;;;;;;;;;4957688;28;20236;-73
2022/12/21 13:25:28;;;;;;;611.77;250.87;;;;;;;;;;4962666;28;20196;-72
2022/12/21 13:27:55;;;;;;;632.93;256.10;;;;;;;;;;4933014;28;20259;-71
2022/12/21 13:30:22;;;;;;;692.57;286.43;;;;;;;;;;4957616;28;20520;-73
2022/12/21 13:32:50;;;;;;;635.87;257.43;;;;;;;;;;4964872;28;20248;-73
2022/12/21 13:35:19;;;;;;;634.53;258.50;;;;;;;;;;4962149;28;20536;-73
2022/12/21 13:37:47;;;;;;;664.63;279.60;;;;;;;;;;4952714;28;20696;-72
2022/12/21 13:40:16;;;;;;;687.97;288.97;;;;;;;;;;4954254;28;20344;-72
2022/12/21 13:42:47;;;;;;;655.50;273.93;;;;;;;;;;4962148;28;20279;-69
2022/12/21 13:45:32;;;;;;;642.60;254.70;;;;;;;;;;4961539;28;20243;-73
2022/12/21 13:48:04;;;;;;;673.17;287.53;;;;;;;;;;4954233;28;20255;-72
2022/12/21 13:50:45;;;;;;;725.13;306.73;;;;;;;;;;4952231;28;20220;-72
2022/12/21 13:53:20;;;;;;;603.97;247.23;;;;;;;;;;4980344;28;20315;-72
2022/12/21 13:55:52;;;;;;;677.53;279.00;;;;;;;;;;4948608;28;20309;-72
2022/12/21 13:58:18;;;;;;;583.30;245.33;;;;;;;;;;4956874;28;20228;-72
2022/12/21 14:01:06;;;;;;;594.03;243.67;;;;;;;;;;4961948;28;20276;-72
2022/12/21 14:03:41;;;;;;;624.40;252.47;;;;;;;;;;4964058;28;20260;-73
2022/12/21 14:06:38;;;;;;;700.90;285.43;;;;;;;;;;4955438;28;20295;-72
2022/12/21 14:09:07;;;;;;;697.53;285.90;;;;;;;;;;4958021;28;20300;-72
2022/12/21 14:11:41;;;;;;;659.67;259.90;;;;;;;;;;4959476;28;20583;-72
2022/12/21 14:14:13;;;;;;;626.47;258.30;;;;;;;;;;4965456;28;20348;-73
2022/12/21 14:16:42;;;;;;;669.77;273.67;;;;;;;;;;4957877;28;21019;-72
2022/12/21 14:19:24;;;;;;;658.67;265.80;;;;;;;;;;4950090;28;22443;-73
2022/12/21 14:21:50;;;;;;;660.40;267.13;;;;;;;;;;4962083;28;20479;-75
2022/12/21 14:24:21;;;;;;;686.17;289.93;;;;;;;;;;4954515;28;20221;-73
2022/12/21 14:26:53;;;;;;;631.03;262.70;;;;;;;;;;4957998;28;20675;-73
2022/12/21 14:29:21;;;;;;;658.07;262.37;;;;;;;;;;4967178;28;20269;-73